createdAt,value
2019-02-08T00:01:50.246Z,7.20
2019-02-08T00:04:17.088Z,8.75
2019-02-08T00:06:43.911Z,9.40
2019-02-08T00:09:10.767Z,8.60
2019-02-08T00:11:37.614Z,9.00
2019-02-08T00:14:04.450Z,7.90
2019-02-08T00:16:31.304Z,8.45
2019-02-08T00:18:58.166Z,8.27
2019-02-08T00:21:24.994Z,7.87
2019-02-08T00:23:51.817Z,6.70
2019-02-08T00:26:18.678Z,7.87
2019-02-08T00:28:45.523Z,7.50
2019-02-08T00:31:12.363Z,9.15
2019-02-08T00:33:39.198Z,8.80
2019-02-08T00:36:06.050Z,7.80
2019-02-08T00:38:32.870Z,9.40
2019-02-08T00:40:59.719Z,8.73
2019-02-08T00:43:26.556Z,8.47
2019-02-08T00:45:53.440Z,8.83
2019-02-08T00:48:20.286Z,8.27
2019-02-08T00:50:47.145Z,7.57
2019-02-08T00:53:13.978Z,7.80
2019-02-08T00:55:40.851Z,7.80
2019-02-08T00:58:07.686Z,8.20
2019-02-08T01:00:34.541Z,9.23
2019-02-08T01:03:01.383Z,8.10
2019-02-08T01:05:28.277Z,8.03
2019-02-08T01:07:55.110Z,8.67
2019-02-08T01:10:24.754Z,7.70
2019-02-08T01:12:51.630Z,9.03
2019-02-08T01:15:18.817Z,8.00
2019-02-08T01:17:45.644Z,9.20
2019-02-08T01:20:14.332Z,10.53
2019-02-08T01:22:41.162Z,9.67
2019-02-08T01:25:10.375Z,10.50
2019-02-08T01:27:37.213Z,9.30
2019-02-08T01:30:06.098Z,10.53
2019-02-08T01:32:32.943Z,11.93
2019-02-08T01:34:59.782Z,11.73
2019-02-08T01:37:26.623Z,11.60
2019-02-08T01:39:53.442Z,11.45
2019-02-08T01:42:20.298Z,11.67
2019-02-08T01:44:47.137Z,9.70
2019-02-08T01:47:13.994Z,11.70
2019-02-08T01:49:40.851Z,10.70
2019-02-08T01:52:07.778Z,12.55
2019-02-08T01:54:34.631Z,13.15
2019-02-08T01:57:01.486Z,11.97
2019-02-08T01:59:28.310Z,12.20
2019-02-08T02:01:55.153Z,12.90
2019-02-08T02:04:21.995Z,12.30
2019-02-08T02:06:48.845Z,11.77
2019-02-08T02:09:15.681Z,10.43
2019-02-08T02:11:42.526Z,11.00
2019-02-08T02:14:09.558Z,11.87
2019-02-08T02:16:36.424Z,9.00
2019-02-08T02:19:03.272Z,11.25
2019-02-08T02:21:30.118Z,9.30
2019-02-08T02:23:56.949Z,9.47
2019-02-08T02:26:23.798Z,9.30
2019-02-08T02:28:50.631Z,9.63
2019-02-08T02:31:17.478Z,9.13
2019-02-08T02:33:44.310Z,10.63
2019-02-08T02:36:11.153Z,10.07
2019-02-08T02:38:37.990Z,9.87
2019-02-08T02:41:04.854Z,7.83
2019-02-08T02:43:32.582Z,8.80
2019-02-08T02:45:58.538Z,12.18
2019-02-08T02:48:25.395Z,10.47
2019-02-08T02:50:52.246Z,11.78
2019-02-08T02:53:19.083Z,11.90
2019-02-08T02:55:45.937Z,10.30
2019-02-08T02:58:12.766Z,9.70
2019-02-08T03:00:42.459Z,10.03
2019-02-08T03:03:09.813Z,11.50
2019-02-08T03:05:36.657Z,10.43
2019-02-08T03:08:04.419Z,12.58
2019-02-08T03:10:31.250Z,10.53
2019-02-08T03:12:58.103Z,11.93
2019-02-08T03:15:24.929Z,12.28
2019-02-08T03:17:51.782Z,12.07
2019-02-08T03:20:18.622Z,10.50
2019-02-08T03:22:45.469Z,12.53
2019-02-08T03:25:14.665Z,11.47
2019-02-08T03:27:41.502Z,8.97
2019-02-08T03:30:10.679Z,10.20
2019-02-08T03:32:37.531Z,8.80
2019-02-08T03:35:05.680Z,8.00
2019-02-08T03:37:32.530Z,8.80
2019-02-08T03:39:59.385Z,8.80
2019-02-08T03:42:26.243Z,9.37
2019-02-08T03:44:53.083Z,9.90
2019-02-08T03:47:19.950Z,9.53
2019-02-08T03:49:46.790Z,10.90
2019-02-08T03:52:13.618Z,8.60
2019-02-08T03:54:40.442Z,9.40
2019-02-08T03:57:07.301Z,9.10
2019-02-08T03:59:34.130Z,15.50
2019-02-08T04:02:00.986Z,20.35
2019-02-08T04:04:27.844Z,8.80
2019-02-08T04:06:54.714Z,7.97
2019-02-08T04:09:21.549Z,8.60
2019-02-08T04:11:48.407Z,8.20
2019-02-08T04:14:15.262Z,8.27
2019-02-08T04:16:42.126Z,8.20
2019-02-08T04:19:08.962Z,8.40
2019-02-08T04:21:35.807Z,8.17
2019-02-08T04:24:02.629Z,9.20
2019-02-08T04:26:29.486Z,9.27
2019-02-08T04:28:56.318Z,9.23
2019-02-08T04:31:23.187Z,10.40
2019-02-08T04:33:50.004Z,10.23
2019-02-08T04:36:16.829Z,9.87
2019-02-08T04:38:43.686Z,10.13
2019-02-08T04:41:10.614Z,10.13
2019-02-08T04:43:37.466Z,9.60
2019-02-08T04:46:04.300Z,9.33
2019-02-08T04:48:31.155Z,8.80
2019-02-08T04:50:57.992Z,10.03
2019-02-08T04:53:24.838Z,9.03
2019-02-08T04:55:51.776Z,9.90
2019-02-08T04:58:18.622Z,9.83
2019-02-08T05:00:45.469Z,10.47
2019-02-08T05:03:12.374Z,10.17
2019-02-08T05:05:39.175Z,10.67
2019-02-08T05:08:06.122Z,10.87
2019-02-08T05:10:32.965Z,9.60
2019-02-08T05:12:59.825Z,10.17
2019-02-08T05:15:26.666Z,9.87
2019-02-08T05:17:53.657Z,10.63
2019-02-08T05:20:22.085Z,10.80
2019-02-08T05:22:48.945Z,9.50
2019-02-08T05:25:15.809Z,9.70
2019-02-08T05:27:42.653Z,10.60
2019-02-08T05:30:13.015Z,10.27
2019-02-08T05:32:39.869Z,8.77
2019-02-08T05:35:07.079Z,8.03
2019-02-08T05:37:33.937Z,8.20
2019-02-08T05:40:00.766Z,8.37
2019-02-08T05:42:27.647Z,8.00
2019-02-08T05:44:54.484Z,8.00
2019-02-08T05:47:21.353Z,7.23
2019-02-08T05:49:48.188Z,6.87
2019-02-08T05:52:15.059Z,7.23
2019-02-08T05:54:41.937Z,7.40
2019-02-08T05:57:08.811Z,6.63
2019-02-08T05:59:35.691Z,6.23
2019-02-08T06:02:02.537Z,7.03
2019-02-08T06:04:29.391Z,5.90
2019-02-08T06:06:56.219Z,6.07
2019-02-08T06:09:23.119Z,6.40
2019-02-08T06:11:49.955Z,7.03
2019-02-08T06:14:16.974Z,6.80
2019-02-08T06:16:43.803Z,6.60
2019-02-08T06:19:10.663Z,5.50
2019-02-08T06:21:37.554Z,6.60
2019-02-08T06:24:04.406Z,5.50
2019-02-08T06:26:31.250Z,4.57
2019-02-08T06:28:58.110Z,5.10
2019-02-08T06:31:24.943Z,5.40
2019-02-08T06:33:51.789Z,5.00
2019-02-08T06:36:18.637Z,4.97
2019-02-08T06:38:45.529Z,4.43
2019-02-08T06:41:12.380Z,5.00
2019-02-08T06:43:39.240Z,4.40
2019-02-08T06:46:06.102Z,4.90
2019-02-08T06:48:32.930Z,5.10
2019-02-08T06:50:59.788Z,5.13
2019-02-08T06:53:26.622Z,4.12
2019-02-08T06:55:54.060Z,4.87
2019-02-08T06:58:26.642Z,5.20
2019-02-08T07:01:15.282Z,5.70
2019-02-08T07:03:53.333Z,4.27
2019-02-08T07:06:40.559Z,4.73
2019-02-08T07:09:18.584Z,3.73
2019-02-08T07:11:51.150Z,5.10
2019-02-08T07:14:26.544Z,4.00
2019-02-08T07:17:05.078Z,3.63
2019-02-08T07:19:41.423Z,3.80
2019-02-08T07:22:16.390Z,4.03
2019-02-08T07:24:51.736Z,4.75
2019-02-08T07:27:29.737Z,5.00
2019-02-08T07:30:04.178Z,5.10
2019-02-08T07:32:36.826Z,5.83
2019-02-08T07:35:12.670Z,4.70
2019-02-08T07:38:05.102Z,4.30
2019-02-08T07:40:45.545Z,3.70
2019-02-08T07:43:30.286Z,3.40
2019-02-08T07:46:06.471Z,3.30
2019-02-08T07:48:45.875Z,3.30
2019-02-08T07:51:21.466Z,2.70
2019-02-08T07:54:09.797Z,3.30
2019-02-08T07:56:58.081Z,2.90
2019-02-08T07:59:33.165Z,2.70
2019-02-08T08:02:06.742Z,3.03
2019-02-08T08:04:41.834Z,2.40
2019-02-08T08:07:33.149Z,3.20
2019-02-08T08:10:12.666Z,3.00
2019-02-08T08:12:52.857Z,2.87
2019-02-08T08:15:40.229Z,3.13
2019-02-08T08:18:20.064Z,3.10
2019-02-08T08:21:03.269Z,3.50
2019-02-08T08:23:39.394Z,2.60
2019-02-08T08:26:14.077Z,3.10
2019-02-08T08:28:46.625Z,3.55
2019-02-08T08:31:18.313Z,3.10
2019-02-08T08:33:50.013Z,4.33
2019-02-08T08:36:23.846Z,4.00
2019-02-08T08:39:22.034Z,3.83
2019-02-08T08:42:01.066Z,3.67
2019-02-08T08:44:59.163Z,3.87
2019-02-08T08:47:39.266Z,3.10
2019-02-08T08:50:43.349Z,2.43
2019-02-08T08:53:40.762Z,3.20
2019-02-08T08:56:31.925Z,3.50
2019-02-08T08:59:11.917Z,4.37
2019-02-08T09:02:08.042Z,3.50
2019-02-08T09:05:05.110Z,3.40
2019-02-08T09:07:57.478Z,2.67
2019-02-08T09:10:36.805Z,3.10
2019-02-08T09:13:24.534Z,2.23
2019-02-08T09:16:09.134Z,2.80
2019-02-08T09:18:50.978Z,2.97
2019-02-08T09:21:45.661Z,2.57
2019-02-08T09:24:40.950Z,2.97
2019-02-08T09:27:23.477Z,3.27
2019-02-08T09:30:37.266Z,2.30
2019-02-08T09:33:33.302Z,2.77
2019-02-08T09:36:35.674Z,2.20
2019-02-08T09:39:14.010Z,2.10
2019-02-08T09:41:57.166Z,2.17
2019-02-08T09:44:42.298Z,1.93
2019-02-08T09:47:28.820Z,1.87
2019-02-08T09:50:09.369Z,2.33
2019-02-08T09:53:03.936Z,2.33
2019-02-08T09:55:42.319Z,2.60
2019-02-08T09:58:23.906Z,2.27
2019-02-08T10:01:33.910Z,2.20
2019-02-08T10:04:18.302Z,2.20
2019-02-08T10:07:09.542Z,2.62
2019-02-08T10:10:18.490Z,2.50
2019-02-08T10:13:10.623Z,2.50
2019-02-08T10:16:09.562Z,2.20
2019-02-08T10:19:15.261Z,2.43
2019-02-08T10:22:25.122Z,2.20
2019-02-08T10:25:10.329Z,3.03
2019-02-08T10:28:05.074Z,3.83
2019-02-08T10:31:08.594Z,3.03
2019-02-08T10:33:54.718Z,3.80
2019-02-08T10:37:06.597Z,2.67
2019-02-08T10:39:54.039Z,2.37
2019-02-08T10:42:53.333Z,2.20
2019-02-08T10:45:55.774Z,2.47
2019-02-08T10:48:41.291Z,2.83
2019-02-08T10:51:49.235Z,3.10
2019-02-08T10:54:46.089Z,2.20
2019-02-08T10:57:55.958Z,4.10
2019-02-08T11:00:50.181Z,2.13
2019-02-08T11:03:45.458Z,1.93
2019-02-08T11:06:36.158Z,2.13
2019-02-08T11:09:14.770Z,2.80
2019-02-08T11:12:11.218Z,1.60
2019-02-08T11:15:08.367Z,2.33
2019-02-08T11:18:03.190Z,2.10
2019-02-08T11:20:30.047Z,1.97
2019-02-08T11:22:56.886Z,1.53
2019-02-08T11:25:23.751Z,2.43
2019-02-08T11:27:50.583Z,2.95
2019-02-08T11:30:17.498Z,2.50
2019-02-08T11:32:44.344Z,2.50
2019-02-08T11:35:11.197Z,1.90
2019-02-08T11:37:38.041Z,1.73
2019-02-08T11:40:08.538Z,2.20
2019-02-08T11:42:35.371Z,2.07
2019-02-08T11:45:02.335Z,1.63
2019-02-08T11:47:29.207Z,1.43
2019-02-08T11:49:56.052Z,1.40
2019-02-08T11:52:22.890Z,1.70
2019-02-08T11:54:49.755Z,1.60
2019-02-08T11:57:16.581Z,1.32
2019-02-08T11:59:43.417Z,1.70
2019-02-08T12:02:10.262Z,1.20
2019-02-08T12:04:37.114Z,1.70
2019-02-08T12:07:04.088Z,1.60
2019-02-08T12:09:30.923Z,1.40
2019-02-08T12:11:57.745Z,1.33
2019-02-08T12:14:24.598Z,1.40
2019-02-08T12:16:51.441Z,1.30
2019-02-08T12:19:18.293Z,1.57
2019-02-08T12:21:45.154Z,1.10
2019-02-08T12:24:12.018Z,1.40
2019-02-08T12:26:38.846Z,1.23
2019-02-08T12:29:06.290Z,1.50
2019-02-08T12:31:33.122Z,1.20
2019-02-08T12:33:59.974Z,1.50
2019-02-08T12:36:26.864Z,1.83
2019-02-08T12:38:53.697Z,2.10
2019-02-08T12:41:20.590Z,2.23
2019-02-08T12:43:47.449Z,1.30
2019-02-08T12:46:14.298Z,1.63
2019-02-08T12:48:41.158Z,1.30
2019-02-08T12:51:07.978Z,1.37
2019-02-08T12:53:34.835Z,1.50
2019-02-08T12:56:01.641Z,1.60
2019-02-08T12:58:28.470Z,1.23
2019-02-08T13:00:55.311Z,1.60
2019-02-08T13:03:22.161Z,1.50
2019-02-08T13:05:49.002Z,1.47
2019-02-08T13:08:15.822Z,1.47
2019-02-08T13:10:42.737Z,1.17
2019-02-08T13:13:09.565Z,1.60
2019-02-08T13:15:36.406Z,1.67
2019-02-08T13:18:03.274Z,1.90
2019-02-08T13:20:30.113Z,1.53
2019-02-08T13:22:57.041Z,1.23
2019-02-08T13:25:23.889Z,1.60
2019-02-08T13:27:50.726Z,1.23
2019-02-08T13:30:20.578Z,1.80
2019-02-08T13:32:47.437Z,1.23
2019-02-08T13:35:14.318Z,1.70
2019-02-08T13:37:41.153Z,1.50
2019-02-08T13:40:09.446Z,1.20
2019-02-08T13:42:36.265Z,1.40
2019-02-08T13:45:03.496Z,1.70
2019-02-08T13:47:30.344Z,1.30
2019-02-08T13:49:57.275Z,1.70
2019-02-08T13:52:24.122Z,2.20
2019-02-08T13:54:50.988Z,1.70
2019-02-08T13:57:17.867Z,1.40
2019-02-08T13:59:44.686Z,1.40
2019-02-08T14:02:11.510Z,1.43
2019-02-08T14:04:39.462Z,1.70
2019-02-08T14:07:06.314Z,2.17
2019-02-08T14:09:33.157Z,1.63
2019-02-08T14:12:00.014Z,4.93
2019-02-08T14:14:26.884Z,12.07
2019-02-08T14:16:53.806Z,3.60
2019-02-08T14:19:20.706Z,1.63
2019-02-08T14:21:47.601Z,1.97
2019-02-08T14:24:14.458Z,2.30
2019-02-08T14:26:41.298Z,1.80
2019-02-08T14:29:08.260Z,2.00
2019-02-08T14:31:35.076Z,2.40
2019-02-08T14:34:02.059Z,1.40
2019-02-08T14:36:29.009Z,1.70
2019-02-08T14:38:55.891Z,1.40
2019-02-08T14:41:22.719Z,2.10
2019-02-08T14:43:49.583Z,1.57
2019-02-08T14:46:16.427Z,1.53
2019-02-08T14:48:43.361Z,1.40
2019-02-08T14:51:10.196Z,1.37
2019-02-08T14:53:37.089Z,1.63
2019-02-08T14:56:03.966Z,1.40
2019-02-08T14:58:30.802Z,1.33
2019-02-08T15:00:57.694Z,1.50
2019-02-08T15:03:24.525Z,2.13
2019-02-08T15:05:51.388Z,1.40
2019-02-08T15:08:18.271Z,2.20
2019-02-08T15:10:46.394Z,1.20
2019-02-08T15:13:13.366Z,1.72
2019-02-08T15:15:40.208Z,1.20
2019-02-08T15:18:07.066Z,1.50
2019-02-08T15:20:33.894Z,1.53
2019-02-08T15:23:00.769Z,1.82
2019-02-08T15:25:27.590Z,1.67
2019-02-08T15:27:54.432Z,1.63
2019-02-08T15:30:22.774Z,1.30
2019-02-08T15:32:49.690Z,1.20
2019-02-08T15:35:17.662Z,1.90
2019-02-08T15:37:44.526Z,1.20
2019-02-08T15:40:14.666Z,1.30
2019-02-08T15:42:41.602Z,1.93
2019-02-08T15:45:11.874Z,1.60
2019-02-08T15:47:38.698Z,1.60
2019-02-08T15:50:05.711Z,1.83
2019-02-08T15:52:32.560Z,1.10
2019-02-08T15:54:59.426Z,1.73
2019-02-08T15:57:31.936Z,2.87
2019-02-08T15:59:53.182Z,2.37
2019-02-08T16:02:20.006Z,1.80
2019-02-08T16:04:46.882Z,2.33
2019-02-08T16:07:14.121Z,2.67
2019-02-08T16:09:40.967Z,2.80
2019-02-08T16:12:07.815Z,2.17
2019-02-08T16:14:34.682Z,2.33
2019-02-08T16:17:01.530Z,2.10
2019-02-08T16:19:28.390Z,2.20
2019-02-08T16:21:55.221Z,2.73
2019-02-08T16:24:22.074Z,3.47
2019-02-08T16:26:48.894Z,2.60
2019-02-08T16:29:15.735Z,3.70
2019-02-08T16:31:42.574Z,3.70
2019-02-08T16:34:09.444Z,3.93
2019-02-08T16:36:36.282Z,3.77
2019-02-08T16:39:06.599Z,2.40
2019-02-08T16:41:33.435Z,2.63
2019-02-08T16:44:00.367Z,3.20
2019-02-08T16:46:27.307Z,2.70
2019-02-08T16:48:54.158Z,2.50
2019-02-08T16:51:21.001Z,2.50
2019-02-08T16:53:53.305Z,2.10
2019-02-08T16:56:14.702Z,2.00
2019-02-08T16:58:41.531Z,2.60
2019-02-08T17:01:08.457Z,2.10
2019-02-08T17:03:35.295Z,2.50
2019-02-08T17:06:02.240Z,2.70
2019-02-08T17:08:29.100Z,2.50
2019-02-08T17:10:55.949Z,2.77
2019-02-08T17:13:22.773Z,2.10
2019-02-08T17:15:49.646Z,2.20
2019-02-08T17:18:16.487Z,2.60
2019-02-08T17:20:44.582Z,3.27
2019-02-08T17:23:11.414Z,3.47
2019-02-08T17:25:38.283Z,3.50
2019-02-08T17:28:05.749Z,3.20
2019-02-08T17:30:32.610Z,5.60
2019-02-08T17:32:59.442Z,5.13
2019-02-08T17:35:26.406Z,3.73
2019-02-08T17:37:53.237Z,2.67
2019-02-08T17:40:21.917Z,2.57
2019-02-08T17:42:48.755Z,2.70
2019-02-08T17:45:16.642Z,2.43
2019-02-08T17:47:43.461Z,2.63
2019-02-08T17:50:12.275Z,2.00
2019-02-08T17:52:39.099Z,1.87
2019-02-08T17:55:06.958Z,2.97
2019-02-08T17:57:33.814Z,2.70
2019-02-08T18:00:00.664Z,2.60
2019-02-08T18:02:27.489Z,1.70
2019-02-08T18:04:54.343Z,2.10
2019-02-08T18:07:21.195Z,1.90
2019-02-08T18:09:48.071Z,2.17
2019-02-08T18:12:14.910Z,1.70
2019-02-08T18:14:41.758Z,1.40
2019-02-08T18:17:10.698Z,1.93
2019-02-08T18:19:37.001Z,2.00
2019-02-08T18:22:03.687Z,4.50
2019-02-08T18:24:30.534Z,3.00
2019-02-08T18:26:57.410Z,2.90
2019-02-08T18:29:24.246Z,2.63
2019-02-08T18:31:51.114Z,2.90
2019-02-08T18:34:17.974Z,3.13
2019-02-08T18:36:44.829Z,3.20
2019-02-08T18:39:11.731Z,4.23
2019-02-08T18:41:38.592Z,2.47
2019-02-08T18:44:05.430Z,2.30
2019-02-08T18:46:32.287Z,2.20
2019-02-08T18:48:59.142Z,1.97
2019-02-08T18:51:26.015Z,3.57
2019-02-08T18:53:52.846Z,2.53
2019-02-08T18:56:19.702Z,2.77
2019-02-08T18:58:46.551Z,2.47
2019-02-08T19:01:13.411Z,2.00
2019-02-08T19:03:40.253Z,2.40
2019-02-08T19:06:07.126Z,2.75
2019-02-08T19:08:33.965Z,3.20
2019-02-08T19:11:00.822Z,4.43
2019-02-08T19:13:27.669Z,3.77
2019-02-08T19:15:54.538Z,4.40
2019-02-08T19:18:21.390Z,7.40
2019-02-08T19:20:48.342Z,5.73
2019-02-08T19:23:15.181Z,4.90
2019-02-08T19:25:42.318Z,8.80
2019-02-08T19:28:10.729Z,6.00
2019-02-08T19:30:38.132Z,3.67
2019-02-08T19:33:05.390Z,3.23
2019-02-08T19:35:32.230Z,6.03
2019-02-08T19:37:59.152Z,6.70
2019-02-08T19:40:28.233Z,5.67
2019-02-08T19:42:55.272Z,4.33
2019-02-08T19:45:22.206Z,4.60
2019-02-08T19:47:49.478Z,3.50
2019-02-08T19:50:21.496Z,3.50
2019-02-08T19:52:48.580Z,3.27
2019-02-08T19:55:15.518Z,3.20
2019-02-08T19:57:42.646Z,3.20
2019-02-08T20:00:12.178Z,3.37
2019-02-08T20:02:39.151Z,2.87
2019-02-08T20:05:10.270Z,3.35
2019-02-08T20:07:37.388Z,3.33
2019-02-08T20:10:06.766Z,3.80
2019-02-08T20:12:33.770Z,4.00
2019-02-08T20:15:00.834Z,4.00
2019-02-08T20:17:27.713Z,3.60
2019-02-08T20:19:54.767Z,3.43
2019-02-08T20:22:21.815Z,5.20
2019-02-08T20:24:48.870Z,4.30
2019-02-08T20:27:15.933Z,3.93
2019-02-08T20:29:42.854Z,3.62
2019-02-08T20:32:09.873Z,2.80
2019-02-08T20:34:36.906Z,3.10
2019-02-08T20:37:04.132Z,3.90
2019-02-08T20:39:31.017Z,3.90
2019-02-08T20:41:58.045Z,4.40
2019-02-08T20:44:25.068Z,4.53
2019-02-08T20:46:52.204Z,3.40
2019-02-08T20:49:19.115Z,3.60
2019-02-08T20:51:46.275Z,6.60
2019-02-08T20:54:13.342Z,5.80
2019-02-08T20:56:40.296Z,4.50
2019-02-08T20:59:07.251Z,3.80
2019-02-08T21:01:34.074Z,3.22
2019-02-08T21:04:01.249Z,3.17
2019-02-08T21:06:28.110Z,3.23
2019-02-08T21:08:54.991Z,3.37
2019-02-08T21:11:22.134Z,4.27
2019-02-08T21:13:49.044Z,5.30
2019-02-08T21:16:15.940Z,4.20
2019-02-08T21:18:42.818Z,5.20
2019-02-08T21:21:09.761Z,5.57
2019-02-08T21:23:36.651Z,6.40
2019-02-08T21:26:03.562Z,5.77
2019-02-08T21:28:30.445Z,4.70
2019-02-08T21:30:57.273Z,5.40
2019-02-08T21:33:24.224Z,8.13
2019-02-08T21:35:51.055Z,14.98
2019-02-08T21:38:17.930Z,16.57
2019-02-08T21:40:44.776Z,12.67
2019-02-08T21:43:11.642Z,21.57
2019-02-08T21:45:39.969Z,19.60
2019-02-08T21:48:07.962Z,12.70
2019-02-08T21:50:34.782Z,6.95
2019-02-08T21:53:01.642Z,4.75
2019-02-08T21:55:28.544Z,4.40
2019-02-08T21:57:55.507Z,3.70
2019-02-08T22:00:25.019Z,4.30
2019-02-08T22:02:51.873Z,4.03
2019-02-08T22:05:25.266Z,4.40
2019-02-08T22:07:52.118Z,4.95
2019-02-08T22:10:18.954Z,4.13
2019-02-08T22:12:45.825Z,5.00
2019-02-08T22:15:15.552Z,4.87
2019-02-08T22:17:42.424Z,4.93
2019-02-08T22:20:12.466Z,4.80
2019-02-08T22:22:39.314Z,5.67
2019-02-08T22:25:06.755Z,4.40
2019-02-08T22:27:33.610Z,5.00
2019-02-08T22:30:00.439Z,5.00
2019-02-08T22:32:27.296Z,5.15
2019-02-08T22:34:54.134Z,5.40
2019-02-08T22:37:21.013Z,4.53
2019-02-08T22:39:47.877Z,4.57
2019-02-08T22:42:14.818Z,3.70
2019-02-08T22:44:41.686Z,4.23
2019-02-08T22:47:08.528Z,4.50
2019-02-08T22:49:35.405Z,4.53
2019-02-08T22:52:02.241Z,3.63
2019-02-08T22:54:29.098Z,3.60
2019-02-08T22:56:55.937Z,3.00
2019-02-08T22:59:23.786Z,2.80
2019-02-08T23:01:50.618Z,2.77
2019-02-08T23:04:17.474Z,2.90
2019-02-08T23:06:45.206Z,2.90
2019-02-08T23:09:18.657Z,2.77
2019-02-08T23:11:45.506Z,2.87
2019-02-08T23:14:12.358Z,2.70
2019-02-08T23:16:39.197Z,2.40
2019-02-08T23:19:06.062Z,2.10
2019-02-08T23:21:32.913Z,2.80
2019-02-08T23:23:59.858Z,2.50
2019-02-08T23:26:26.709Z,2.30
2019-02-08T23:28:53.574Z,1.93
2019-02-08T23:31:20.416Z,2.47
2019-02-08T23:33:47.271Z,2.33
2019-02-08T23:36:14.121Z,2.00
2019-02-08T23:38:40.970Z,2.10
2019-02-08T23:41:07.818Z,2.00
2019-02-08T23:43:34.674Z,2.30
2019-02-08T23:46:01.760Z,2.50
2019-02-08T23:48:28.618Z,2.47
2019-02-08T23:50:55.466Z,2.20
2019-02-08T23:53:22.296Z,3.03
2019-02-08T23:55:49.165Z,2.07
2019-02-08T23:58:16.022Z,2.03
